createdAt,value
2019-01-24T00:00:10.300Z,65.83
2019-01-24T00:02:38.804Z,65.32
2019-01-24T00:05:06.507Z,64.83
2019-01-24T00:07:33.131Z,65.64
2019-01-24T00:09:59.624Z,65.61
2019-01-24T00:12:26.226Z,66.06
2019-01-24T00:14:53.001Z,65.07
2019-01-24T00:17:19.479Z,65.54
2019-01-24T00:19:45.968Z,64.70
2019-01-24T00:22:12.429Z,65.10
2019-01-24T00:24:38.886Z,65.33
2019-01-24T00:27:05.552Z,65.47
2019-01-24T00:29:32.107Z,65.12
2019-01-24T00:31:59.660Z,65.30
2019-01-24T00:34:26.293Z,65.69
2019-01-24T00:36:52.912Z,65.16
2019-01-24T00:39:21.195Z,65.38
2019-01-24T00:41:47.989Z,65.26
2019-01-24T00:44:14.567Z,65.26
2019-01-24T00:46:41.231Z,65.03
2019-01-24T00:49:07.908Z,65.26
2019-01-24T00:51:34.398Z,65.37
2019-01-24T00:54:00.995Z,64.21
2019-01-24T00:56:27.450Z,65.37
2019-01-24T00:58:57.124Z,65.14
2019-01-24T01:01:23.599Z,65.45
2019-01-24T01:03:50.073Z,64.73
2019-01-24T01:06:16.633Z,65.20
2019-01-24T01:08:43.089Z,65.13
2019-01-24T01:11:09.622Z,65.43
2019-01-24T01:13:36.163Z,65.87
2019-01-24T01:16:05.502Z,64.87
2019-01-24T01:18:32.108Z,64.67
2019-01-24T01:20:58.603Z,64.91
2019-01-24T01:23:25.639Z,65.39
2019-01-24T01:25:52.321Z,64.99
2019-01-24T01:28:18.840Z,64.71
2019-01-24T01:30:45.470Z,64.76
2019-01-24T01:33:11.992Z,65.58
2019-01-24T01:35:38.656Z,65.59
2019-01-24T01:38:05.233Z,65.38
2019-01-24T01:40:31.833Z,64.99
2019-01-24T01:42:58.823Z,65.42
2019-01-24T01:45:27.668Z,65.02
2019-01-24T01:47:54.215Z,65.35
2019-01-24T01:50:23.117Z,65.16
2019-01-24T01:52:49.778Z,65.45
2019-01-24T01:55:16.230Z,65.33
2019-01-24T01:57:42.764Z,65.56
2019-01-24T02:00:14.252Z,65.32
2019-01-24T02:02:43.506Z,65.83
2019-01-24T02:05:11.434Z,65.98
2019-01-24T02:07:37.897Z,66.33
2019-01-24T02:10:09.195Z,66.22
2019-01-24T02:12:38.054Z,66.51
2019-01-24T02:15:08.349Z,65.96
2019-01-24T02:17:34.829Z,66.03
2019-01-24T02:20:01.663Z,66.16
2019-01-24T02:22:28.530Z,66.04
2019-01-24T02:24:57.123Z,66.61
2019-01-24T02:27:23.818Z,66.27
2019-01-24T02:29:50.342Z,66.40
2019-01-24T02:32:19.170Z,66.66
2019-01-24T02:34:49.684Z,66.61
2019-01-24T02:37:14.238Z,66.01
2019-01-24T02:39:40.780Z,65.86
2019-01-24T02:42:07.363Z,66.23
2019-01-24T02:44:35.280Z,65.92
2019-01-24T02:47:01.852Z,65.74
2019-01-24T02:49:30.692Z,65.50
2019-01-24T02:51:57.164Z,66.62
2019-01-24T02:54:23.810Z,66.36
2019-01-24T02:56:50.287Z,65.69
2019-01-24T02:59:17.012Z,66.27
2019-01-24T03:01:43.575Z,66.54
2019-01-24T03:04:10.020Z,66.07
2019-01-24T03:06:36.516Z,66.71
2019-01-24T03:09:05.044Z,66.69
2019-01-24T03:11:31.624Z,66.87
2019-01-24T03:13:58.349Z,66.36
2019-01-24T03:16:24.813Z,66.40
2019-01-24T03:18:51.340Z,66.63
2019-01-24T03:21:17.863Z,66.41
2019-01-24T03:23:44.423Z,66.40
2019-01-24T03:26:10.882Z,66.37
2019-01-24T03:28:40.570Z,66.46
2019-01-24T03:31:07.366Z,67.04
2019-01-24T03:33:34.008Z,66.90
2019-01-24T03:36:00.467Z,66.55
2019-01-24T03:38:26.986Z,66.88
2019-01-24T03:40:53.814Z,66.33
2019-01-24T03:43:20.757Z,66.65
2019-01-24T03:45:47.412Z,66.83
2019-01-24T03:48:14.000Z,66.63
2019-01-24T03:50:41.118Z,66.74
2019-01-24T03:53:07.935Z,66.34
2019-01-24T03:55:34.825Z,66.87
2019-01-24T03:58:02.050Z,66.76
2019-01-24T04:00:29.022Z,66.70
2019-01-24T04:02:55.883Z,67.16
2019-01-24T04:05:22.687Z,66.79
2019-01-24T04:07:49.644Z,66.39
2019-01-24T04:10:20.212Z,65.89
2019-01-24T04:12:47.137Z,65.54
2019-01-24T04:15:17.970Z,66.08
2019-01-24T04:17:45.866Z,66.66
2019-01-24T04:20:12.748Z,66.56
2019-01-24T04:22:39.328Z,66.34
2019-01-24T04:25:07.119Z,66.43
2019-01-24T04:27:33.741Z,67.08
2019-01-24T04:30:00.349Z,66.75
2019-01-24T04:32:27.064Z,66.86
2019-01-24T04:34:53.524Z,66.77
2019-01-24T04:37:23.225Z,66.48
2019-01-24T04:39:49.890Z,66.79
2019-01-24T04:42:16.838Z,65.96
2019-01-24T04:44:43.313Z,66.46
2019-01-24T04:47:09.776Z,66.29
2019-01-24T04:49:37.177Z,66.49
2019-01-24T04:52:03.604Z,66.48
2019-01-24T04:54:30.285Z,66.55
2019-01-24T04:56:57.134Z,66.90
2019-01-24T04:59:23.608Z,66.46
2019-01-24T05:01:50.106Z,66.90
2019-01-24T05:04:17.852Z,66.21
2019-01-24T05:06:44.300Z,66.74
2019-01-24T05:09:10.811Z,66.54
2019-01-24T05:11:37.479Z,66.18
2019-01-24T05:14:03.974Z,66.78
2019-01-24T05:16:33.211Z,66.62
2019-01-24T05:19:04.625Z,66.29
2019-01-24T05:21:31.170Z,65.96
2019-01-24T05:23:57.708Z,66.97
2019-01-24T05:26:24.454Z,66.97
2019-01-24T05:28:50.977Z,66.44
2019-01-24T05:31:17.438Z,66.43
2019-01-24T05:33:44.167Z,66.29
2019-01-24T05:36:10.717Z,65.68
2019-01-24T05:38:37.361Z,66.19
2019-01-24T05:41:03.867Z,66.23
2019-01-24T05:43:31.093Z,65.91
2019-01-24T05:45:57.622Z,66.01
2019-01-24T05:48:24.270Z,65.99
2019-01-24T05:50:50.983Z,66.17
2019-01-24T05:53:17.741Z,66.25
2019-01-24T05:55:47.820Z,66.02
2019-01-24T05:58:16.672Z,66.01
2019-01-24T06:00:44.824Z,66.22
2019-01-24T06:03:11.789Z,66.30
2019-01-24T06:05:41.816Z,66.44
2019-01-24T06:08:07.518Z,66.31
2019-01-24T06:10:34.407Z,65.76
2019-01-24T06:13:01.052Z,66.44
2019-01-24T06:15:27.869Z,66.47
2019-01-24T06:17:54.776Z,65.99
2019-01-24T06:20:23.591Z,66.65
2019-01-24T06:22:53.294Z,66.17
2019-01-24T06:25:20.122Z,66.78
2019-01-24T06:27:46.995Z,66.56
2019-01-24T06:30:22.440Z,66.24
2019-01-24T06:32:49.469Z,66.89
2019-01-24T06:35:16.451Z,66.60
2019-01-24T06:37:43.080Z,66.48
2019-01-24T06:40:13.939Z,66.37
2019-01-24T06:42:40.872Z,66.65
2019-01-24T06:45:12.382Z,66.70
2019-01-24T06:47:40.695Z,66.70
2019-01-24T06:50:11.088Z,66.29
2019-01-24T06:52:38.311Z,65.74
2019-01-24T06:55:10.523Z,65.85
2019-01-24T06:57:40.336Z,66.34
2019-01-24T07:00:12.325Z,66.22
2019-01-24T07:02:39.075Z,65.88
2019-01-24T07:05:05.518Z,65.51
2019-01-24T07:07:35.206Z,65.87
2019-01-24T07:10:05.630Z,65.43
2019-01-24T07:12:33.569Z,65.94
2019-01-24T07:15:00.372Z,65.22
2019-01-24T07:17:27.269Z,65.56
2019-01-24T07:19:54.238Z,65.92
2019-01-24T07:22:20.772Z,65.71
2019-01-24T07:24:47.613Z,65.46
2019-01-24T07:27:14.261Z,65.20
2019-01-24T07:29:40.922Z,65.72
2019-01-24T07:32:07.874Z,66.00
2019-01-24T07:34:34.719Z,66.04
2019-01-24T07:37:01.485Z,65.87
2019-01-24T07:39:28.281Z,66.34
2019-01-24T07:43:30.575Z,65.79
2019-01-24T07:45:57.195Z,66.22
2019-01-24T07:48:23.676Z,65.94
2019-01-24T07:50:50.197Z,65.15
2019-01-24T07:53:16.870Z,65.62
2019-01-24T07:55:44.435Z,65.88
2019-01-24T07:58:10.876Z,65.31
2019-01-24T08:00:37.422Z,66.53
2019-01-24T08:03:03.905Z,65.57
2019-01-24T08:05:30.538Z,65.38
2019-01-24T08:07:57.235Z,65.43
2019-01-24T08:10:23.758Z,65.16
2019-01-24T08:12:50.372Z,65.61
2019-01-24T08:15:19.794Z,65.67
2019-01-24T08:17:46.316Z,65.19
2019-01-24T08:20:19.117Z,65.81
2019-01-24T08:22:45.585Z,64.20
2019-01-24T08:25:13.079Z,64.93
2019-01-24T08:27:39.754Z,63.41
2019-01-24T08:30:11.823Z,64.20
2019-01-24T08:32:38.364Z,63.57
2019-01-24T08:35:07.172Z,63.98
2019-01-24T08:37:33.964Z,63.66
2019-01-24T08:40:00.621Z,63.52
2019-01-24T08:42:27.259Z,63.84
2019-01-24T08:44:53.749Z,62.84
2019-01-24T08:47:20.260Z,63.36
2019-01-24T08:49:46.793Z,62.97
2019-01-24T08:52:13.366Z,62.96
2019-01-24T08:54:39.846Z,62.66
2019-01-24T08:57:06.565Z,63.04
2019-01-24T08:59:33.067Z,62.08
2019-01-24T09:01:59.520Z,62.62
2019-01-24T09:04:26.002Z,62.19
2019-01-24T09:06:52.948Z,61.99
2019-01-24T09:09:19.363Z,62.06
2019-01-24T09:11:47.742Z,62.27
2019-01-24T09:14:14.200Z,62.50
2019-01-24T09:16:40.822Z,62.10
2019-01-24T09:19:07.382Z,62.39
2019-01-24T09:21:33.874Z,61.62
2019-01-24T09:24:00.448Z,61.57
2019-01-24T09:26:26.927Z,61.24
2019-01-24T09:28:53.378Z,61.76
2019-01-24T09:31:19.861Z,61.51
2019-01-24T09:33:46.531Z,63.07
2019-01-24T09:36:13.045Z,61.87
2019-01-24T09:38:39.521Z,61.21
2019-01-24T09:41:06.049Z,61.34
2019-01-24T09:43:32.479Z,60.42
2019-01-24T09:45:58.939Z,60.85
2019-01-24T09:48:25.459Z,60.70
2019-01-24T09:50:51.972Z,60.27
2019-01-24T09:53:18.418Z,60.33
2019-01-24T09:55:44.877Z,60.25
2019-01-24T09:58:11.375Z,59.69
2019-01-24T10:00:38.110Z,58.90
2019-01-24T10:03:04.781Z,58.75
2019-01-24T10:05:31.277Z,59.16
2019-01-24T10:07:57.889Z,59.10
2019-01-24T10:10:26.938Z,59.65
2019-01-24T10:12:54.479Z,58.52
2019-01-24T10:15:21.264Z,59.04
2019-01-24T10:18:44.423Z,59.08
2019-01-24T10:21:11.029Z,58.77
2019-01-24T10:23:39.841Z,58.21
2019-01-24T10:26:08.100Z,57.80
2019-01-24T10:28:34.531Z,58.33
2019-01-24T10:31:01.060Z,58.25
2019-01-24T10:33:27.680Z,57.78
2019-01-24T10:35:54.209Z,57.63
2019-01-24T10:38:20.656Z,57.78
2019-01-24T10:40:47.152Z,57.62
2019-01-24T10:43:14.735Z,57.59
2019-01-24T10:45:41.594Z,58.32
2019-01-24T10:48:08.147Z,57.76
2019-01-24T10:50:35.289Z,57.98
2019-01-24T10:53:03.256Z,57.69
2019-01-24T10:55:29.738Z,58.35
2019-01-24T10:57:58.822Z,57.48
2019-01-24T11:00:31.548Z,57.74
2019-01-24T11:02:58.948Z,57.67
2019-01-24T11:05:25.556Z,57.74
2019-01-24T11:07:52.073Z,57.46
2019-01-24T11:10:19.975Z,57.65
2019-01-24T11:12:47.298Z,57.29
2019-01-24T11:15:21.778Z,57.03
2019-01-24T11:17:49.414Z,57.12
2019-01-24T11:20:18.047Z,56.27
2019-01-24T11:22:46.079Z,56.26
2019-01-24T11:25:17.570Z,56.53
2019-01-24T11:27:44.113Z,56.59
2019-01-24T11:41:25.659Z,55.68
2019-01-24T11:43:52.561Z,55.24
2019-01-24T11:46:19.756Z,55.54
2019-01-24T11:48:46.819Z,55.36
2019-01-24T11:51:14.850Z,54.85
2019-01-24T11:53:41.814Z,54.66
2019-01-24T11:56:08.823Z,55.03
2019-01-24T11:58:35.470Z,54.12
2019-01-24T12:01:01.958Z,54.73
2019-01-24T12:03:28.419Z,54.65
2019-01-24T12:05:54.904Z,55.08
2019-01-24T12:08:21.404Z,55.31
2019-01-24T12:10:47.959Z,55.51
2019-01-24T12:13:14.420Z,55.16
2019-01-24T12:15:41.054Z,55.65
2019-01-24T12:18:07.720Z,54.71
2019-01-24T12:20:37.587Z,55.42
2019-01-24T12:23:04.151Z,56.19
2019-01-24T12:25:31.679Z,55.64
2019-01-24T12:27:58.262Z,55.73
2019-01-24T12:30:29.712Z,56.16
2019-01-24T12:32:57.260Z,55.39
2019-01-24T12:35:24.065Z,55.44
2019-01-24T12:37:51.649Z,55.11
2019-01-24T12:40:18.112Z,55.33
2019-01-24T12:42:44.728Z,55.54
2019-01-24T12:45:16.002Z,55.21
2019-01-24T12:47:42.555Z,55.52
2019-01-24T12:50:15.136Z,55.65
2019-01-24T12:52:43.300Z,55.71
2019-01-24T12:55:10.980Z,55.46
2019-01-24T12:57:37.461Z,56.32
2019-01-24T13:00:09.660Z,56.40
2019-01-24T13:02:37.350Z,56.43
2019-01-24T13:05:05.779Z,56.25
2019-01-24T13:07:32.258Z,56.52
2019-01-24T13:09:58.832Z,55.90
2019-01-24T13:12:25.302Z,55.44
2019-01-24T13:14:51.750Z,55.71
2019-01-24T13:17:18.381Z,55.29
2019-01-24T13:20:41.319Z,55.95
2019-01-24T13:23:07.829Z,55.63
2019-01-24T13:25:34.590Z,55.56
2019-01-24T13:28:01.098Z,55.96
2019-01-24T13:30:30.536Z,55.88
2019-01-24T13:32:57.032Z,55.43
2019-01-24T13:35:23.660Z,55.52
2019-01-24T13:37:51.126Z,55.91
2019-01-24T13:40:23.925Z,55.59
2019-01-24T13:42:51.547Z,56.24
2019-01-24T13:45:41.004Z,55.52
2019-01-24T13:48:07.624Z,55.91
2019-01-24T13:50:34.068Z,55.89
2019-01-24T13:53:00.753Z,55.61
2019-01-24T13:55:27.276Z,56.05
2019-01-24T13:57:54.851Z,56.88
2019-01-24T14:00:26.683Z,56.23
2019-01-24T14:02:58.626Z,57.17
2019-01-24T14:05:28.140Z,56.94
2019-01-24T14:07:54.794Z,56.42
2019-01-24T14:10:23.354Z,57.64
2019-01-24T14:12:50.123Z,56.55
2019-01-24T14:15:19.310Z,57.16
2019-01-24T14:17:46.211Z,57.50
2019-01-24T14:20:17.622Z,57.50
2019-01-24T14:22:44.759Z,56.45
2019-01-24T14:25:15.867Z,56.71
2019-01-24T14:27:42.413Z,57.37
2019-01-24T14:30:14.528Z,57.23
2019-01-24T14:32:41.383Z,57.33
2019-01-24T14:35:07.992Z,57.07
2019-01-24T14:37:39.747Z,57.83
2019-01-24T14:40:07.326Z,57.07
2019-01-24T14:42:33.799Z,57.04
2019-01-24T14:45:00.268Z,58.06
2019-01-24T14:47:26.764Z,58.27
2019-01-24T14:50:50.132Z,58.96
2019-01-24T14:53:16.686Z,57.82
2019-01-24T14:55:43.155Z,59.26
2019-01-24T14:58:09.645Z,59.61
2019-01-24T15:00:41.513Z,60.03
2019-01-24T15:03:08.070Z,60.20
2019-01-24T15:05:34.608Z,60.65
2019-01-24T15:08:01.284Z,60.91
2019-01-24T15:10:27.786Z,60.71
2019-01-24T15:12:54.335Z,60.17
2019-01-24T15:15:21.917Z,59.60
2019-01-24T15:17:48.411Z,60.64
2019-01-24T15:20:16.745Z,60.99
2019-01-24T15:22:43.168Z,61.30
2019-01-24T15:25:13.127Z,60.79
2019-01-24T15:27:39.565Z,61.42
2019-01-24T15:30:11.555Z,61.45
2019-01-24T15:32:38.228Z,61.30
2019-01-24T15:35:04.879Z,61.58
2019-01-24T15:37:31.339Z,61.87
2019-01-24T15:39:57.935Z,62.15
2019-01-24T15:42:25.041Z,61.89
2019-01-24T15:44:51.963Z,62.50
2019-01-24T15:47:18.702Z,62.52
2019-01-24T15:49:45.174Z,62.07
2019-01-24T15:52:11.620Z,61.84
2019-01-24T15:54:38.271Z,61.46
2019-01-24T15:57:04.763Z,62.52
2019-01-24T15:59:31.421Z,62.24
2019-01-24T16:01:57.984Z,62.53
2019-01-24T16:04:24.430Z,62.72
2019-01-24T16:06:50.960Z,63.23
2019-01-24T16:09:17.530Z,62.61
2019-01-24T16:11:44.061Z,63.03
2019-01-24T16:14:10.723Z,63.15
2019-01-24T16:16:37.217Z,63.70
2019-01-24T16:19:03.729Z,63.91
2019-01-24T16:21:30.197Z,64.12
2019-01-24T16:23:56.786Z,64.16
2019-01-24T16:26:23.391Z,63.86
2019-01-24T16:28:51.069Z,64.35
2019-01-24T16:31:17.673Z,64.73
2019-01-24T16:33:44.274Z,64.72
2019-01-24T16:36:10.942Z,64.98
2019-01-24T16:38:37.572Z,64.92
2019-01-24T16:41:04.435Z,65.39
2019-01-24T16:43:31.303Z,65.07
2019-01-24T16:45:57.936Z,65.21
2019-01-24T16:48:24.514Z,65.79
2019-01-24T16:50:51.017Z,66.01
2019-01-24T16:53:17.463Z,66.16
2019-01-24T16:55:43.908Z,66.55
2019-01-24T16:58:10.387Z,65.82
2019-01-24T17:00:41.741Z,66.04
2019-01-24T17:03:09.504Z,66.10
2019-01-24T17:05:37.912Z,66.31
2019-01-24T17:08:05.423Z,66.63
2019-01-24T17:10:31.943Z,65.98
2019-01-24T17:12:58.477Z,65.95
2019-01-24T17:15:25.518Z,65.63
2019-01-24T17:17:52.361Z,66.63
2019-01-24T17:20:23.152Z,66.79
2019-01-24T17:22:49.781Z,66.75
2019-01-24T17:25:17.712Z,65.41
2019-01-24T17:27:46.356Z,65.55
2019-01-24T17:30:18.509Z,65.49
2019-01-24T17:32:45.209Z,65.39
2019-01-24T17:35:11.814Z,64.74
2019-01-24T17:37:40.310Z,65.48
2019-01-24T17:40:13.831Z,64.51
2019-01-24T17:42:40.530Z,63.56
2019-01-24T17:45:12.300Z,64.45
2019-01-24T17:47:38.746Z,63.65
2019-01-24T17:50:09.963Z,64.50
2019-01-24T17:52:36.435Z,64.80
2019-01-24T17:55:08.590Z,64.92
2019-01-24T17:57:38.556Z,64.77
2019-01-24T18:00:11.463Z,64.79
2019-01-24T18:02:40.114Z,63.60
2019-01-24T18:05:08.650Z,63.32
2019-01-24T18:07:35.493Z,63.93
2019-01-24T18:10:13.885Z,64.00
2019-01-24T18:12:36.142Z,63.68
2019-01-24T18:15:09.890Z,63.58
2019-01-24T18:17:36.556Z,62.92
2019-01-24T18:20:08.941Z,63.49
2019-01-24T18:22:35.826Z,63.64
2019-01-24T18:25:04.374Z,63.52
2019-01-24T18:27:31.077Z,63.12
2019-01-24T18:29:57.675Z,62.96
2019-01-24T18:32:24.327Z,63.13
2019-01-24T18:34:50.826Z,64.35
2019-01-24T18:37:17.295Z,64.36
2019-01-24T18:39:43.873Z,63.48
2019-01-24T18:42:10.973Z,64.33
2019-01-24T18:44:37.628Z,64.00
2019-01-24T18:47:04.471Z,64.90
2019-01-24T18:49:31.246Z,64.00
2019-01-24T18:51:57.822Z,64.20
2019-01-24T18:54:24.268Z,64.06
2019-01-24T18:56:50.765Z,64.79
2019-01-24T18:59:17.555Z,64.12
2019-01-24T19:01:44.052Z,64.60
2019-01-24T19:04:10.518Z,64.26
2019-01-24T19:06:52.186Z,64.98
2019-01-24T19:09:18.693Z,64.75
2019-01-24T19:11:46.916Z,65.11
2019-01-24T19:14:13.904Z,65.00
2019-01-24T19:16:40.370Z,64.85
2019-01-24T19:19:06.969Z,64.83
2019-01-24T19:21:33.532Z,64.52
2019-01-24T19:23:59.973Z,64.73
2019-01-24T19:26:27.039Z,64.35
2019-01-24T19:28:53.760Z,64.38
2019-01-24T19:31:20.210Z,64.78
2019-01-24T19:33:46.782Z,64.75
2019-01-24T19:36:13.568Z,64.85
2019-01-24T19:38:40.034Z,64.93
2019-01-24T19:41:07.871Z,65.42
2019-01-24T19:43:34.339Z,65.13
2019-01-24T19:46:00.779Z,64.84
2019-01-24T19:48:27.401Z,64.25
2019-01-24T19:50:53.882Z,64.59
2019-01-24T19:53:20.361Z,64.71
2019-01-24T19:55:47.488Z,64.40
2019-01-24T19:58:14.136Z,64.45
2019-01-24T20:00:40.605Z,64.76
2019-01-24T20:03:07.535Z,64.52
2019-01-24T20:05:34.046Z,64.82
2019-01-24T20:08:00.725Z,64.78
2019-01-24T20:10:28.630Z,64.97
2019-01-24T20:12:55.388Z,64.49
2019-01-24T20:15:25.188Z,63.92
2019-01-24T20:17:51.821Z,63.96
2019-01-24T20:20:18.734Z,64.12
2019-01-24T20:22:45.388Z,64.12
2019-01-24T20:25:21.001Z,64.15
2019-01-24T20:27:48.654Z,64.12
2019-01-24T20:30:18.725Z,64.10
2019-01-24T20:32:45.358Z,63.80
2019-01-24T20:35:17.671Z,64.52
2019-01-24T20:37:47.207Z,64.21
2019-01-24T20:40:13.871Z,64.76
2019-01-24T20:42:40.948Z,63.93
2019-01-24T20:45:10.322Z,64.07
2019-01-24T20:47:36.880Z,63.92
2019-01-24T20:50:09.646Z,63.96
2019-01-24T20:52:36.335Z,63.69
2019-01-24T20:55:23.204Z,64.14
2019-01-24T20:57:50.549Z,63.42
2019-01-24T21:00:21.392Z,64.05
2019-01-24T21:02:48.582Z,64.34
2019-01-24T21:05:19.304Z,64.05
2019-01-24T21:07:46.116Z,64.06
2019-01-24T21:10:16.672Z,63.76
2019-01-24T21:12:43.416Z,63.88
2019-01-24T21:15:13.745Z,63.81
2019-01-24T21:17:40.444Z,63.68
2019-01-24T21:20:12.453Z,63.78
2019-01-24T21:22:39.028Z,63.77
2019-01-24T21:25:10.440Z,63.70
2019-01-24T21:27:37.052Z,64.55
2019-01-24T21:30:09.348Z,63.67
2019-01-24T21:32:36.012Z,63.74
2019-01-24T21:35:06.284Z,63.88
2019-01-24T21:37:32.854Z,64.12
2019-01-24T21:39:59.469Z,64.29
2019-01-24T21:42:26.247Z,63.71
2019-01-24T21:44:52.798Z,64.49
2019-01-24T21:47:22.407Z,64.39
2019-01-24T21:49:49.015Z,63.78
2019-01-24T21:52:17.509Z,63.74
2019-01-24T21:54:44.200Z,64.64
2019-01-24T21:57:10.813Z,63.79
2019-01-24T21:59:37.793Z,63.74
2019-01-24T22:02:06.005Z,64.08
2019-01-24T22:04:32.656Z,64.29
2019-01-24T22:06:59.332Z,63.67
2019-01-24T22:09:29.207Z,63.48
2019-01-24T22:11:54.484Z,63.40
2019-01-24T22:14:21.085Z,62.91
2019-01-24T22:16:48.815Z,63.42
2019-01-24T22:19:15.417Z,63.57
2019-01-24T22:21:42.218Z,63.36
2019-01-24T22:24:08.865Z,64.21
2019-01-24T22:26:35.417Z,63.42
2019-01-24T22:29:02.031Z,64.01
2019-01-24T22:31:28.775Z,64.00
2019-01-24T22:33:55.383Z,63.58
2019-01-24T22:36:22.093Z,63.84
2019-01-24T22:38:48.728Z,63.41
2019-01-24T22:41:15.343Z,63.78
2019-01-24T22:43:41.935Z,63.90
2019-01-24T22:46:08.632Z,63.91
2019-01-24T22:48:35.218Z,64.20
2019-01-24T22:51:01.801Z,63.65
2019-01-24T22:53:28.463Z,63.18
2019-01-24T22:55:55.304Z,63.68
2019-01-24T22:58:21.945Z,63.69
2019-01-24T23:00:54.719Z,64.18
2019-01-24T23:03:29.172Z,63.41
2019-01-24T23:05:55.843Z,63.17
2019-01-24T23:08:22.391Z,63.48
2019-01-24T23:10:48.962Z,63.04
2019-01-24T23:13:15.556Z,63.05
2019-01-24T23:15:42.166Z,63.10
2019-01-24T23:18:08.801Z,63.44
2019-01-24T23:20:35.573Z,63.25
2019-01-24T23:23:02.811Z,62.93
2019-01-24T23:25:29.563Z,63.21
2019-01-24T23:27:56.317Z,63.19
2019-01-24T23:30:22.955Z,63.21
2019-01-24T23:32:49.969Z,63.47
2019-01-24T23:35:16.675Z,63.00
2019-01-24T23:37:43.372Z,62.85
2019-01-24T23:40:10.904Z,62.84
2019-01-24T23:42:37.469Z,62.42
2019-01-24T23:45:07.982Z,62.79
2019-01-24T23:47:34.568Z,63.35
2019-01-24T23:50:01.231Z,63.32
2019-01-24T23:52:27.999Z,63.48
2019-01-24T23:54:55.704Z,63.15
2019-01-24T23:57:23.942Z,63.22
2019-01-24T23:59:50.811Z,63.42
